createdAt,value
2023-08-17T00:02:17.675Z,100742.06
2023-08-17T00:04:44.666Z,100747.19
2023-08-17T00:07:11.898Z,100746.56
2023-08-17T00:09:39.597Z,100751.88
2023-08-17T00:12:06.863Z,100756.75
2023-08-17T00:14:33.778Z,100756.94
2023-08-17T00:17:00.767Z,100752.47
2023-08-17T00:19:27.663Z,100749.13
2023-08-17T00:21:56.332Z,100745.03
2023-08-17T00:24:23.193Z,100744.09
2023-08-17T00:26:50.109Z,100744.66
2023-08-17T00:29:18.211Z,100745.19
2023-08-17T00:31:45.317Z,100743.09
2023-08-17T00:34:12.380Z,100738.16
2023-08-17T00:36:39.243Z,100745.28
2023-08-17T00:39:06.277Z,100734.03
2023-08-17T00:41:33.201Z,100734.75
2023-08-17T00:44:01.801Z,100729.78
2023-08-17T00:46:30.751Z,100730.97
2023-08-17T00:48:59.367Z,100735.47
2023-08-17T00:51:27.501Z,100727.50
2023-08-17T00:53:59.086Z,100723.38
2023-08-17T00:56:27.629Z,100722.09
2023-08-17T00:58:55.261Z,100721.25
2023-08-17T01:01:23.757Z,100715.31
2023-08-17T01:03:50.901Z,100712.00
2023-08-17T01:06:17.787Z,100711.38
2023-08-17T01:08:45.881Z,100720.72
2023-08-17T01:11:35.793Z,100721.06
2023-08-17T01:14:34.284Z,100723.72
2023-08-17T01:17:49.518Z,100723.72
2023-08-17T01:20:18.127Z,100715.94
2023-08-17T01:22:49.881Z,100714.63
2023-08-17T01:25:17.010Z,100721.09
2023-08-17T01:27:46.711Z,100721.28
2023-08-17T01:30:18.782Z,100723.94
2023-08-17T01:33:08.401Z,100717.81
2023-08-17T01:35:51.243Z,100710.38
2023-08-17T01:38:20.156Z,100711.38
2023-08-17T01:40:48.879Z,100707.72
2023-08-17T01:43:18.040Z,100716.53
2023-08-17T01:45:45.255Z,100706.25
2023-08-17T01:48:12.211Z,100702.75
2023-08-17T01:50:39.105Z,100705.78
2023-08-17T01:53:06.013Z,100699.00
2023-08-17T01:55:32.898Z,100703.84
2023-08-17T01:57:59.851Z,100696.25
2023-08-17T02:00:26.870Z,100691.91
2023-08-17T02:02:53.784Z,100695.78
2023-08-17T02:05:20.708Z,100695.78
2023-08-17T02:07:47.605Z,100692.47
2023-08-17T02:10:14.510Z,100689.97
2023-08-17T02:12:41.363Z,100693.66
2023-08-17T02:15:09.189Z,100695.13
2023-08-17T02:17:36.186Z,100689.00
2023-08-17T02:20:04.911Z,100684.88
2023-08-17T02:22:31.842Z,100679.75
2023-08-17T02:24:58.735Z,100679.91
2023-08-17T02:27:26.124Z,100679.25
2023-08-17T02:29:53.196Z,100675.94
2023-08-17T02:32:20.104Z,100672.66
2023-08-17T02:34:47.033Z,100672.66
2023-08-17T02:37:13.895Z,100674.31
2023-08-17T02:39:40.902Z,100671.38
2023-08-17T02:42:07.807Z,100668.06
2023-08-17T02:44:34.786Z,100678.22
2023-08-17T02:47:01.739Z,100671.09
2023-08-17T02:49:28.602Z,100676.56
2023-08-17T02:51:55.487Z,100676.09
2023-08-17T02:54:22.415Z,100676.09
2023-08-17T02:56:49.373Z,100681.41
2023-08-17T02:59:16.225Z,100679.41
2023-08-17T03:01:43.221Z,100672.09
2023-08-17T03:04:10.178Z,100669.09
2023-08-17T03:06:37.047Z,100676.69
2023-08-17T03:09:04.415Z,100680.16
2023-08-17T03:11:31.307Z,100674.03
2023-08-17T03:14:04.044Z,100674.50
2023-08-17T03:16:31.456Z,100670.38
2023-08-17T03:18:59.301Z,100674.66
2023-08-17T03:21:26.786Z,100672.19
2023-08-17T03:23:53.921Z,100677.50
2023-08-17T03:26:20.897Z,100681.34
2023-08-17T03:28:47.738Z,100683.81
2023-08-17T03:31:14.682Z,100685.81
2023-08-17T03:33:41.829Z,100693.78
2023-08-17T03:36:08.808Z,100685.00
2023-08-17T03:38:35.711Z,100689.66
2023-08-17T03:41:02.758Z,100691.66
2023-08-17T03:43:29.613Z,100685.69
2023-08-17T03:45:56.451Z,100676.09
2023-08-17T03:48:23.893Z,100681.03
2023-08-17T03:50:55.616Z,100678.22
2023-08-17T03:53:22.653Z,100683.16
2023-08-17T03:55:52.749Z,100684.00
2023-08-17T03:58:19.857Z,100680.34
2023-08-17T04:00:54.315Z,100675.84
2023-08-17T04:03:21.500Z,100687.94
2023-08-17T04:05:48.440Z,100688.56
2023-08-17T04:08:15.311Z,100684.75
2023-08-17T04:10:42.188Z,100678.44
2023-08-17T04:13:09.076Z,100682.75
2023-08-17T04:15:36.044Z,100694.00
2023-08-17T04:18:02.943Z,100699.16
2023-08-17T04:20:29.837Z,100690.81
2023-08-17T04:22:56.719Z,100700.25
2023-08-17T04:25:23.591Z,100699.25
2023-08-17T04:27:50.465Z,100705.47
2023-08-17T04:30:17.381Z,100709.94
2023-08-17T04:32:44.575Z,100707.66
2023-08-17T04:35:11.914Z,100712.47
2023-08-17T04:37:38.855Z,100716.66
2023-08-17T04:40:06.972Z,100715.00
2023-08-17T04:42:33.837Z,100713.38
2023-08-17T04:45:00.671Z,100720.03
2023-08-17T04:47:27.923Z,100721.72
2023-08-17T04:49:55.079Z,100712.28
2023-08-17T04:52:21.946Z,100720.25
2023-08-17T04:54:48.877Z,100712.28
2023-08-17T04:57:15.781Z,100715.59
2023-08-17T04:59:42.656Z,100716.09
2023-08-17T05:02:09.540Z,100728.81
2023-08-17T05:04:37.264Z,100736.09
2023-08-17T05:07:04.378Z,100727.94
2023-08-17T05:09:31.681Z,100727.94
2023-08-17T05:11:58.719Z,100732.72
2023-08-17T05:14:25.608Z,100730.72
2023-08-17T05:16:52.497Z,100730.34
2023-08-17T05:19:19.333Z,100732.00
2023-08-17T05:21:46.279Z,100738.13
2023-08-17T05:24:13.204Z,100733.94
2023-08-17T05:26:40.124Z,100737.88
2023-08-17T05:29:07.023Z,100742.66
2023-08-17T05:31:33.930Z,100748.63
2023-08-17T05:34:00.826Z,100748.34
2023-08-17T05:36:27.655Z,100745.31
2023-08-17T05:38:54.468Z,100761.44
2023-08-17T05:41:21.443Z,100762.41
2023-08-17T05:43:49.770Z,100753.81
2023-08-17T05:46:16.631Z,100752.81
2023-08-17T05:48:44.002Z,100752.63
2023-08-17T05:51:10.910Z,100741.94
2023-08-17T05:53:37.764Z,100749.09
2023-08-17T05:56:04.740Z,100745.88
2023-08-17T05:58:31.648Z,100745.84
2023-08-17T06:01:09.585Z,100745.66
2023-08-17T06:03:38.178Z,100747.63
2023-08-17T06:06:06.686Z,100757.72
2023-08-17T06:08:33.989Z,100757.53
2023-08-17T06:11:01.018Z,100754.50
2023-08-17T06:13:27.905Z,100750.50
2023-08-17T06:15:57.781Z,100751.69
2023-08-17T06:18:25.711Z,100763.25
2023-08-17T06:20:54.698Z,100752.28
2023-08-17T06:23:22.032Z,100761.13
2023-08-17T06:25:48.957Z,100763.44
2023-08-17T06:28:16.012Z,100775.63
2023-08-17T06:30:42.967Z,100770.03
2023-08-17T06:33:09.964Z,100766.91
2023-08-17T06:35:37.081Z,100764.25
2023-08-17T06:38:04.150Z,100775.50
2023-08-17T06:40:31.051Z,100764.19
2023-08-17T06:42:57.883Z,100761.78
2023-08-17T06:45:24.744Z,100763.44
2023-08-17T06:47:51.689Z,100767.38
2023-08-17T06:50:18.651Z,100766.94
2023-08-17T06:52:45.519Z,100764.38
2023-08-17T06:55:12.392Z,100762.59
2023-08-17T06:57:39.349Z,100761.81
2023-08-17T07:00:07.096Z,100769.78
2023-08-17T07:02:50.664Z,100767.28
2023-08-17T07:05:19.620Z,100779.06
2023-08-17T07:07:46.519Z,100774.38
2023-08-17T07:10:13.471Z,100782.63
2023-08-17T07:12:40.773Z,100775.28
2023-08-17T07:15:13.858Z,100773.25
2023-08-17T07:17:40.931Z,100773.94
2023-08-17T07:20:16.475Z,100775.28
2023-08-17T07:22:44.703Z,100767.78
2023-08-17T07:25:11.605Z,100768.31
2023-08-17T07:27:38.567Z,100765.66
2023-08-17T07:30:06.132Z,100768.03
2023-08-17T07:32:33.502Z,100767.03
2023-08-17T07:35:00.416Z,100775.78
2023-08-17T07:37:34.257Z,100777.22
2023-08-17T07:40:01.401Z,100781.97
2023-08-17T07:42:28.542Z,100783.47
2023-08-17T07:44:55.619Z,100788.22
2023-08-17T07:47:22.563Z,100778.13
2023-08-17T07:49:50.040Z,100777.19
2023-08-17T07:52:17.322Z,100784.25
2023-08-17T07:54:44.677Z,100785.97
2023-08-17T07:57:11.738Z,100786.63
2023-08-17T07:59:38.664Z,100792.38
2023-08-17T08:02:05.615Z,100788.31
2023-08-17T08:04:32.605Z,100777.47
2023-08-17T08:06:59.641Z,100787.13
2023-08-17T08:09:26.584Z,100778.59
2023-08-17T08:11:53.454Z,100782.78
2023-08-17T08:14:20.349Z,100788.03
2023-08-17T08:16:48.303Z,100780.47
2023-08-17T08:19:15.263Z,100789.72
2023-08-17T08:21:42.092Z,100781.94
2023-08-17T08:24:17.711Z,100780.09
2023-08-17T08:26:45.280Z,100786.13
2023-08-17T08:29:12.237Z,100784.84
2023-08-17T08:31:39.562Z,100776.50
2023-08-17T08:34:06.461Z,100769.78
2023-08-17T08:36:33.425Z,100766.75
2023-08-17T08:39:00.326Z,100767.94
2023-08-17T08:41:28.887Z,100776.19
2023-08-17T08:43:56.412Z,100775.78
2023-08-17T08:46:27.999Z,100765.31
2023-08-17T08:48:56.175Z,100766.56
2023-08-17T08:51:31.421Z,100769.84
2023-08-17T08:54:14.634Z,100772.81
2023-08-17T08:56:47.832Z,100765.81
2023-08-17T08:59:16.089Z,100767.66
2023-08-17T09:01:43.566Z,100773.56
2023-08-17T09:04:10.813Z,100770.28
2023-08-17T09:06:39.864Z,100777.88
2023-08-17T09:09:07.466Z,100774.34
2023-08-17T09:11:34.383Z,100774.78
2023-08-17T09:14:01.243Z,100768.84
2023-08-17T09:16:29.295Z,100760.84
2023-08-17T09:18:56.290Z,100764.16
2023-08-17T09:21:25.389Z,100765.63
2023-08-17T09:23:58.913Z,100766.28
2023-08-17T09:26:26.518Z,100767.72
2023-08-17T09:28:55.330Z,100765.47
2023-08-17T09:31:22.776Z,100770.19
2023-08-17T09:33:53.289Z,100774.97
2023-08-17T09:36:24.628Z,100777.44
2023-08-17T09:38:52.536Z,100767.59
2023-08-17T09:41:20.405Z,100760.59
2023-08-17T09:43:50.480Z,100767.19
2023-08-17T09:46:17.496Z,100768.00
2023-08-17T09:48:48.029Z,100768.63
2023-08-17T09:51:18.698Z,100772.75
2023-08-17T09:53:45.584Z,100769.03
2023-08-17T09:58:43.570Z,100760.19
2023-08-17T10:01:11.191Z,100753.16
2023-08-17T10:03:40.472Z,100755.56
2023-08-17T10:06:11.175Z,100754.22
2023-08-17T10:08:47.870Z,100753.00
2023-08-17T10:11:20.869Z,100750.28
2023-08-17T10:13:53.571Z,100750.88
2023-08-17T10:16:31.656Z,100750.06
2023-08-17T10:19:31.180Z,100743.94
2023-08-17T10:22:22.473Z,100748.97
2023-08-17T10:24:50.460Z,100744.44
2023-08-17T10:27:18.727Z,100743.66
2023-08-17T10:29:46.466Z,100738.13
2023-08-17T10:32:16.773Z,100736.59
2023-08-17T10:34:49.933Z,100741.13
2023-08-17T10:37:18.543Z,100742.06
2023-08-17T10:39:50.131Z,100732.94
2023-08-17T10:42:34.595Z,100735.50
2023-08-17T10:45:02.824Z,100738.84
2023-08-17T10:47:35.656Z,100745.00
2023-08-17T10:50:08.225Z,100737.66
2023-08-17T10:52:39.011Z,100729.66
2023-08-17T10:55:09.870Z,100728.63
2023-08-17T10:57:41.082Z,100733.34
2023-08-17T11:00:22.966Z,100733.13
2023-08-17T11:03:13.403Z,100728.84
2023-08-17T11:05:56.738Z,100740.56
2023-08-17T11:08:34.685Z,100739.97
2023-08-17T11:11:13.654Z,100741.44
2023-08-17T11:13:43.244Z,100733.63
2023-08-17T11:16:12.769Z,100729.25
2023-08-17T11:18:45.373Z,100729.50
2023-08-17T11:21:19.394Z,100716.94
2023-08-17T11:23:46.914Z,100716.50
2023-08-17T11:26:17.975Z,100729.69
2023-08-17T11:28:45.916Z,100729.47
2023-08-17T11:31:16.554Z,100731.94
2023-08-17T11:33:43.919Z,100716.56
2023-08-17T11:36:11.797Z,100727.88
2023-08-17T11:38:42.096Z,100725.38
2023-08-17T11:41:10.257Z,100730.09
2023-08-17T11:43:38.463Z,100733.81
2023-08-17T11:46:06.660Z,100732.34
2023-08-17T11:48:37.584Z,100732.53
2023-08-17T11:51:05.269Z,100732.06
2023-08-17T11:53:40.356Z,100747.25
2023-08-17T11:56:09.992Z,100751.88
2023-08-17T11:58:46.394Z,100749.09
2023-08-17T12:01:16.599Z,100739.94
2023-08-17T12:03:44.204Z,100753.00
2023-08-17T12:06:14.139Z,100755.41
2023-08-17T12:08:48.113Z,100747.75
2023-08-17T12:11:18.990Z,100751.84
2023-08-17T12:13:52.159Z,100765.09
2023-08-17T12:16:20.747Z,100771.88
2023-08-17T12:18:52.887Z,100769.00
2023-08-17T12:21:24.317Z,100763.28
2023-08-17T12:23:51.862Z,100763.09
2023-08-17T12:26:23.062Z,100763.03
2023-08-17T12:28:51.373Z,100761.56
2023-08-17T12:31:24.270Z,100752.41
2023-08-17T12:33:52.778Z,100748.56
2023-08-17T12:36:21.509Z,100727.53
2023-08-17T12:38:49.347Z,100721.28
2023-08-17T12:41:17.238Z,100714.66
2023-08-17T12:43:44.400Z,100707.03
2023-08-17T12:46:12.122Z,100705.19
2023-08-17T12:48:42.130Z,100692.34
2023-08-17T12:51:09.087Z,100699.38
2023-08-17T12:53:35.983Z,100692.78
2023-08-17T12:56:03.000Z,100696.53
2023-08-17T12:58:29.969Z,100683.50
2023-08-17T13:00:56.984Z,100681.78
2023-08-17T13:03:24.077Z,100679.13
2023-08-17T13:05:51.411Z,100680.44
2023-08-17T13:08:18.328Z,100682.03
2023-08-17T13:10:45.289Z,100689.16
2023-08-17T13:13:12.255Z,100673.41
2023-08-17T13:15:39.198Z,100673.63
2023-08-17T13:18:06.458Z,100662.31
2023-08-17T13:20:33.858Z,100651.16
2023-08-17T13:23:00.775Z,100637.81
2023-08-17T13:25:27.720Z,100645.03
2023-08-17T13:27:54.589Z,100651.66
2023-08-17T13:30:22.215Z,100654.97
2023-08-17T13:32:49.214Z,100652.91
2023-08-17T13:35:16.230Z,100645.91
2023-08-17T13:37:43.186Z,100639.72
2023-08-17T13:40:11.235Z,100623.66
2023-08-17T13:42:38.211Z,100624.53
2023-08-17T13:45:05.739Z,100611.50
2023-08-17T13:47:32.742Z,100606.63
2023-08-17T13:49:59.806Z,100609.53
2023-08-17T13:52:26.949Z,100616.06
2023-08-17T13:54:54.347Z,100613.34
2023-08-17T13:57:21.268Z,100619.25
2023-08-17T13:59:48.293Z,100620.00
2023-08-17T14:02:15.271Z,100618.66
2023-08-17T14:04:42.268Z,100610.72
2023-08-17T14:07:09.180Z,100602.78
2023-08-17T14:09:36.043Z,100600.63
2023-08-17T14:12:03.122Z,100593.53
2023-08-17T14:14:30.133Z,100582.59
2023-08-17T14:16:58.023Z,100580.72
2023-08-17T14:19:25.117Z,100571.25
2023-08-17T14:21:53.461Z,100568.59
2023-08-17T14:24:20.365Z,100565.47
2023-08-17T14:26:47.262Z,100562.31
2023-08-17T14:29:14.517Z,100559.59
2023-08-17T14:31:41.449Z,100560.03
2023-08-17T14:34:08.387Z,100564.63
2023-08-17T14:36:35.403Z,100569.19
2023-08-17T14:39:02.324Z,100567.75
2023-08-17T14:41:33.213Z,100573.72
2023-08-17T14:44:03.179Z,100565.22
2023-08-17T14:46:31.076Z,100562.91
2023-08-17T14:48:58.878Z,100558.56
2023-08-17T14:51:31.071Z,100559.75
2023-08-17T14:53:58.487Z,100551.47
2023-08-17T14:56:25.424Z,100547.16
2023-08-17T14:58:52.356Z,100547.97
2023-08-17T15:01:19.576Z,100545.06
2023-08-17T15:03:48.011Z,100537.03
2023-08-17T15:06:31.921Z,100535.97
2023-08-17T15:09:00.971Z,100539.47
2023-08-17T15:11:27.864Z,100533.66
2023-08-17T15:13:54.773Z,100539.63
2023-08-17T15:16:26.525Z,100533.19
2023-08-17T15:18:54.102Z,100534.47
2023-08-17T15:21:21.802Z,100534.84
2023-08-17T15:23:48.986Z,100540.56
2023-08-17T15:26:15.973Z,100535.56
2023-08-17T15:28:42.924Z,100529.16
2023-08-17T15:31:17.560Z,100521.94
2023-08-17T15:33:44.699Z,100528.72
2023-08-17T15:36:11.649Z,100522.13
2023-08-17T15:38:38.575Z,100515.16
2023-08-17T15:41:05.636Z,100521.09
2023-08-17T15:43:32.508Z,100521.09
2023-08-17T15:45:59.589Z,100519.25
2023-08-17T15:48:26.588Z,100511.41
2023-08-17T15:50:53.553Z,100508.72
2023-08-17T15:53:20.441Z,100515.75
2023-08-17T15:55:47.415Z,100513.88
2023-08-17T15:58:14.465Z,100517.00
2023-08-17T16:00:41.758Z,100518.28
2023-08-17T16:03:13.076Z,100521.44
2023-08-17T16:05:40.731Z,100519.78
2023-08-17T16:08:07.885Z,100522.22
2023-08-17T16:10:35.681Z,100526.78
2023-08-17T16:13:03.491Z,100525.03
2023-08-17T16:15:30.501Z,100522.09
2023-08-17T16:18:00.744Z,100518.84
2023-08-17T16:20:30.547Z,100516.16
2023-08-17T16:22:57.575Z,100518.44
2023-08-17T16:25:29.672Z,100517.41
2023-08-17T16:27:57.182Z,100521.13
2023-08-17T16:30:24.458Z,100522.88
2023-08-17T16:32:51.720Z,100517.75
2023-08-17T16:35:18.684Z,100518.56
2023-08-17T16:37:45.588Z,100522.03
2023-08-17T16:40:23.941Z,100532.38
2023-08-17T16:43:00.896Z,100531.31
2023-08-17T16:45:28.463Z,100537.75
2023-08-17T16:47:55.623Z,100546.03
2023-08-17T16:50:22.660Z,100551.38
2023-08-17T16:52:49.541Z,100553.00
2023-08-17T16:55:18.036Z,100559.03
2023-08-17T16:57:45.046Z,100552.25
2023-08-17T17:00:13.058Z,100561.13
2023-08-17T17:02:40.093Z,100558.44
2023-08-17T17:05:07.929Z,100553.56
2023-08-17T17:07:34.804Z,100560.78
2023-08-17T17:10:01.726Z,100556.22
2023-08-17T17:12:28.641Z,100555.66
2023-08-17T17:14:55.672Z,100564.34
2023-08-17T17:17:22.661Z,100557.56
2023-08-17T17:19:50.835Z,100549.97
2023-08-17T17:22:17.932Z,100547.75
2023-08-17T17:24:44.848Z,100554.59
2023-08-17T17:27:11.792Z,100546.16
2023-08-17T17:29:38.690Z,100544.97
2023-08-17T17:32:05.801Z,100547.41
2023-08-17T17:34:32.782Z,100544.38
2023-08-17T17:36:59.760Z,100545.63
2023-08-17T17:39:26.690Z,100557.34
2023-08-17T17:41:55.076Z,100547.66
2023-08-17T17:44:21.985Z,100553.84
2023-08-17T17:46:48.965Z,100555.69
2023-08-17T17:49:15.870Z,100545.22
2023-08-17T17:51:42.896Z,100540.88
2023-08-17T17:54:10.068Z,100548.13
2023-08-17T17:56:42.082Z,100537.00
2023-08-17T17:59:11.517Z,100536.41
2023-08-17T18:01:38.884Z,100537.06
2023-08-17T18:04:05.942Z,100538.56
2023-08-17T18:06:35.280Z,100529.56
2023-08-17T18:09:02.788Z,100524.84
2023-08-17T18:11:30.332Z,100535.56
2023-08-17T18:13:57.293Z,100538.47
2023-08-17T18:16:24.262Z,100539.72
2023-08-17T18:18:51.225Z,100540.75
2023-08-17T18:21:18.117Z,100534.59
2023-08-17T18:23:45.043Z,100536.88
2023-08-17T18:26:11.961Z,100541.63
2023-08-17T18:28:38.967Z,100545.56
2023-08-17T18:31:05.927Z,100541.69
2023-08-17T18:33:32.900Z,100548.28
2023-08-17T18:35:59.772Z,100548.75
2023-08-17T18:38:26.804Z,100545.47
2023-08-17T18:40:54.559Z,100552.31
2023-08-17T18:43:21.571Z,100555.41
2023-08-17T18:45:48.532Z,100552.13
2023-08-17T18:48:15.875Z,100553.38
2023-08-17T18:50:42.961Z,100561.88
2023-08-17T18:53:09.880Z,100559.63
2023-08-17T18:55:38.024Z,100565.41
2023-08-17T18:58:05.091Z,100564.41
2023-08-17T19:00:32.099Z,100569.41
2023-08-17T19:02:59.043Z,100570.00
2023-08-17T19:05:26.165Z,100573.94
2023-08-17T19:07:53.327Z,100576.22
2023-08-17T19:10:20.250Z,100575.63
2023-08-17T19:12:47.227Z,100575.22
2023-08-17T19:15:14.128Z,100584.50
2023-08-17T19:17:41.103Z,100592.97
2023-08-17T19:20:09.977Z,100589.69
2023-08-17T19:22:37.504Z,100589.09
2023-08-17T19:25:06.209Z,100590.31
2023-08-17T19:27:33.106Z,100593.41
2023-08-17T19:30:00.120Z,100598.38
2023-08-17T19:32:27.148Z,100595.09
2023-08-17T19:34:54.081Z,100593.44
2023-08-17T19:37:21.064Z,100597.81
2023-08-17T19:39:47.977Z,100597.81
2023-08-17T19:42:14.821Z,100603.78
2023-08-17T19:44:41.715Z,100598.88
2023-08-17T19:47:08.653Z,100602.59
2023-08-17T19:49:35.753Z,100601.16
2023-08-17T19:52:02.722Z,100598.91
2023-08-17T19:54:29.633Z,100604.25
2023-08-17T19:56:57.776Z,100605.50
2023-08-17T19:59:25.381Z,100605.91
2023-08-17T20:01:52.308Z,100615.78
2023-08-17T20:04:19.347Z,100607.16
2023-08-17T20:06:46.916Z,100615.41
2023-08-17T20:09:14.993Z,100617.25
2023-08-17T20:11:41.978Z,100611.47
2023-08-17T20:14:08.987Z,100609.84
2023-08-17T20:16:35.894Z,100616.63
2023-08-17T20:19:05.320Z,100607.81
2023-08-17T20:21:32.528Z,100611.72
2023-08-17T20:23:59.555Z,100605.94
2023-08-17T20:26:26.478Z,100605.34
2023-08-17T20:28:53.916Z,100607.63
2023-08-17T20:31:20.918Z,100611.34
2023-08-17T20:33:47.826Z,100608.47
2023-08-17T20:36:14.755Z,100602.50
2023-08-17T20:38:43.498Z,100606.41
2023-08-17T20:41:10.403Z,100603.97
2023-08-17T20:43:37.511Z,100613.00
2023-08-17T20:46:06.215Z,100604.38
2023-08-17T20:48:33.391Z,100609.72
2023-08-17T20:51:01.790Z,100612.81
2023-08-17T20:53:28.830Z,100612.00
2023-08-17T20:55:55.679Z,100608.72
2023-08-17T20:58:22.575Z,100607.88
2023-08-17T21:00:51.057Z,100608.09
2023-08-17T21:03:18.017Z,100604.81
2023-08-17T21:05:44.935Z,100613.03
2023-08-17T21:08:12.003Z,100608.94
2023-08-17T21:10:39.222Z,100597.81
2023-08-17T21:13:06.126Z,100605.84
2023-08-17T21:15:33.103Z,100600.72
2023-08-17T21:18:00.196Z,100591.66
2023-08-17T21:20:31.146Z,100586.31
2023-08-17T21:22:58.085Z,100595.38
2023-08-17T21:25:24.936Z,100593.72
2023-08-17T21:27:51.914Z,100589.19
2023-08-17T21:30:18.928Z,100586.72
2023-08-17T21:32:45.895Z,100580.16
2023-08-17T21:35:13.340Z,100580.38
2023-08-17T21:37:43.829Z,100577.09
2023-08-17T21:40:14.024Z,100580.16
2023-08-17T21:42:41.050Z,100579.75
2023-08-17T21:45:08.654Z,100572.97
2023-08-17T21:47:35.549Z,100567.81
2023-08-17T21:50:03.169Z,100560.03
2023-08-17T21:52:30.458Z,100566.59
2023-08-17T21:54:57.347Z,100571.94
2023-08-17T21:57:24.508Z,100572.16
2023-08-17T21:59:52.339Z,100555.53
2023-08-17T22:02:19.854Z,100558.19
2023-08-17T22:04:46.799Z,100564.56
2023-08-17T22:07:13.720Z,100551.63
2023-08-17T22:09:40.735Z,100552.63
2023-08-17T22:12:08.031Z,100547.28
2023-08-17T22:14:34.932Z,100552.03
2023-08-17T22:17:01.863Z,100544.44
2023-08-17T22:19:29.650Z,100552.44
2023-08-17T22:21:56.579Z,100546.69
2023-08-17T22:24:24.244Z,100552.25
2023-08-17T22:26:53.117Z,100553.47
2023-08-17T22:29:20.022Z,100550.38
2023-08-17T22:31:46.948Z,100552.03
2023-08-17T22:34:13.852Z,100552.44
2023-08-17T22:36:40.749Z,100547.94
2023-08-17T22:39:07.655Z,100550.38
2023-08-17T22:41:34.824Z,100560.84
2023-08-17T22:44:02.268Z,100557.38
2023-08-17T22:46:29.240Z,100550.38
2023-08-17T22:48:56.208Z,100547.94
2023-08-17T22:51:24.202Z,100551.63
2023-08-17T22:53:51.434Z,100552.03
2023-08-17T22:56:18.375Z,100550.38
2023-08-17T22:58:45.274Z,100556.75
2023-08-17T23:01:12.213Z,100557.16
2023-08-17T23:03:39.111Z,100556.50
2023-08-17T23:06:06.097Z,100562.84
2023-08-17T23:08:33.398Z,100565.94
2023-08-17T23:11:01.849Z,100566.97
2023-08-17T23:13:29.196Z,100572.28
2023-08-17T23:15:56.528Z,100570.03
2023-08-17T23:18:23.527Z,100567.78
2023-08-17T23:20:51.175Z,100571.47
2023-08-17T23:23:19.304Z,100569.19
2023-08-17T23:25:46.345Z,100566.94
2023-08-17T23:28:13.891Z,100567.34
2023-08-17T23:30:42.154Z,100569.78
2023-08-17T23:33:10.651Z,100567.34
2023-08-17T23:35:41.141Z,100572.25
2023-08-17T23:38:10.071Z,100560.13
2023-08-17T23:40:37.157Z,100564.84
2023-08-17T23:43:04.121Z,100562.19
2023-08-17T23:45:31.060Z,100564.25
2023-08-17T23:47:58.545Z,100559.69
2023-08-17T23:50:25.535Z,100552.13
2023-08-17T23:52:52.555Z,100553.13
2023-08-17T23:55:19.505Z,100551.50
2023-08-17T23:57:46.516Z,100558.47
